sensor_id;sensor_type;location;lat;lon;timestamp;pressure;altitude;pressure_sealevel;temperature;humidity
39793;BME280;26080;42.264;24.536;2024-01-11T00:02:04;100469.38;;;-4.44;100.00
39793;BME280;26080;42.264;24.536;2024-01-11T00:04:30;100470.09;;;-4.49;100.00
39793;BME280;26080;42.264;24.536;2024-01-11T00:06:55;100464.16;;;-4.48;100.00
39793;BME280;26080;42.264;24.536;2024-01-11T00:09:20;100459.84;;;-4.50;100.00
39793;BME280;26080;42.264;24.536;2024-01-11T00:11:46;100470.06;;;-4.50;100.00
39793;BME280;26080;42.264;24.536;2024-01-11T00:14:11;100470.06;;;-4.50;100.00
39793;BME280;26080;42.264;24.536;2024-01-11T00:16:37;100469.50;;;-4.40;100.00
39793;BME280;26080;42.264;24.536;2024-01-11T00:19:02;100463.56;;;-4.39;100.00
39793;BME280;26080;42.264;24.536;2024-01-11T00:21:27;100462.81;;;-4.36;100.00
39793;BME280;26080;42.264;24.536;2024-01-11T00:23:53;100463.56;;;-4.39;100.00
39793;BME280;26080;42.264;24.536;2024-01-11T00:26:18;100461.00;;;-4.39;100.00
39793;BME280;26080;42.264;24.536;2024-01-11T00:28:44;100446.59;;;-4.37;100.00
39793;BME280;26080;42.264;24.536;2024-01-11T00:31:10;100437.91;;;-4.42;100.00
39793;BME280;26080;42.264;24.536;2024-01-11T00:33:35;100437.72;;;-4.48;100.00
39793;BME280;26080;42.264;24.536;2024-01-11T00:36:01;100430.66;;;-4.55;100.00
39793;BME280;26080;42.264;24.536;2024-01-11T00:38:26;100433.19;;;-4.57;100.00
39793;BME280;26080;42.264;24.536;2024-01-11T00:40:52;100431.44;;;-4.58;100.00
39793;BME280;26080;42.264;24.536;2024-01-11T00:43:17;100420.06;;;-4.67;100.00
39793;BME280;26080;42.264;24.536;2024-01-11T00:45:44;100422.56;;;-4.69;100.00
39793;BME280;26080;42.264;24.536;2024-01-11T00:48:11;100412.25;;;-4.72;100.00
39793;BME280;26080;42.264;24.536;2024-01-11T00:50:36;100415.16;;;-4.61;100.00
39793;BME280;26080;42.264;24.536;2024-01-11T00:53:02;100405.66;;;-4.65;100.00
39793;BME280;26080;42.264;24.536;2024-01-11T00:55:28;100407.34;;;-4.66;100.00
39793;BME280;26080;42.264;24.536;2024-01-11T00:57:54;100406.66;;;-4.60;100.00
39793;BME280;26080;42.264;24.536;2024-01-11T01:00:19;100394.38;;;-4.72;100.00
39793;BME280;26080;42.264;24.536;2024-01-11T01:02:45;100404.63;;;-4.70;100.00
39793;BME280;26080;42.264;24.536;2024-01-11T01:05:10;100376.59;;;-4.94;100.00
39793;BME280;26080;42.264;24.536;2024-01-11T01:07:36;100402.56;;;-4.82;100.00
39793;BME280;26080;42.264;24.536;2024-01-11T01:10:01;100402.50;;;-4.84;100.00
39793;BME280;26080;42.264;24.536;2024-01-11T01:12:30;100399.00;;;-4.87;100.00
39793;BME280;26080;42.264;24.536;2024-01-11T01:14:55;100394.88;;;-4.82;100.00
39793;BME280;26080;42.264;24.536;2024-01-11T01:17:21;100396.63;;;-4.81;100.00
39793;BME280;26080;42.264;24.536;2024-01-11T01:19:47;100393.16;;;-4.83;100.00
39793;BME280;26080;42.264;24.536;2024-01-11T01:22:12;100396.00;;;-4.74;100.00
39793;BME280;26080;42.264;24.536;2024-01-11T01:24:38;100393.38;;;-4.77;100.00
39793;BME280;26080;42.264;24.536;2024-01-11T01:27:03;100386.53;;;-4.78;100.00
39793;BME280;26080;42.264;24.536;2024-01-11T01:29:29;100389.59;;;-4.88;100.00
39793;BME280;26080;42.264;24.536;2024-01-11T01:31:54;100386.09;;;-4.92;100.00
39793;BME280;26080;42.264;24.536;2024-01-11T01:34:19;100385.91;;;-4.96;100.00
39793;BME280;26080;42.264;24.536;2024-01-11T01:36:45;100380.41;;;-5.09;100.00
39793;BME280;26080;42.264;24.536;2024-01-11T01:39:11;100374.19;;;-5.17;100.00
39793;BME280;26080;42.264;24.536;2024-01-11T01:41:36;100374.94;;;-5.21;100.00
39793;BME280;26080;42.264;24.536;2024-01-11T01:44:02;100367.28;;;-5.21;100.00
39793;BME280;26080;42.264;24.536;2024-01-11T01:46:28;100369.03;;;-5.18;100.00
39793;BME280;26080;42.264;24.536;2024-01-11T01:48:54;100357.19;;;-5.16;100.00
39793;BME280;26080;42.264;24.536;2024-01-11T01:51:21;100365.63;;;-5.19;100.00
39793;BME280;26080;42.264;24.536;2024-01-11T01:53:48;100358.63;;;-5.24;100.00
39793;BME280;26080;42.264;24.536;2024-01-11T01:56:14;100358.66;;;-5.23;100.00
39793;BME280;26080;42.264;24.536;2024-01-11T01:58:40;100351.00;;;-5.23;100.00
39793;BME280;26080;42.264;24.536;2024-01-11T02:01:08;100289.09;;;-5.43;100.00
39793;BME280;26080;42.264;24.536;2024-01-11T02:03:35;100343.69;;;-5.12;100.00
39793;BME280;26080;42.264;24.536;2024-01-11T02:06:02;100339.25;;;-5.18;100.00
39793;BME280;26080;42.264;24.536;2024-01-11T02:08:31;100308.22;;;-5.30;100.00
39793;BME280;26080;42.264;24.536;2024-01-11T02:10:58;100335.84;;;-5.18;100.00
39793;BME280;26080;42.264;24.536;2024-01-11T02:13:25;100330.69;;;-5.20;100.00
39793;BME280;26080;42.264;24.536;2024-01-11T02:15:50;100329.75;;;-5.22;100.00
39793;BME280;26080;42.264;24.536;2024-01-11T02:18:16;100327.88;;;-5.27;100.00
39793;BME280;26080;42.264;24.536;2024-01-11T02:20:41;100329.59;;;-5.26;100.00
39793;BME280;26080;42.264;24.536;2024-01-11T02:23:13;100328.66;;;-5.30;100.00
39793;BME280;26080;42.264;24.536;2024-01-11T02:25:39;100322.47;;;-5.37;100.00
39793;BME280;26080;42.264;24.536;2024-01-11T02:28:05;100330.16;;;-5.35;100.00
39793;BME280;26080;42.264;24.536;2024-01-11T02:30:30;100323.44;;;-5.33;100.00
39793;BME280;26080;42.264;24.536;2024-01-11T02:32:56;100324.06;;;-5.40;100.00
39793;BME280;26080;42.264;24.536;2024-01-11T02:35:23;100319.09;;;-5.36;100.00
39793;BME280;26080;42.264;24.536;2024-01-11T02:37:49;100314.75;;;-5.38;100.00
39793;BME280;26080;42.264;24.536;2024-01-11T02:40:15;100319.81;;;-5.40;100.00
39793;BME280;26080;42.264;24.536;2024-01-11T02:42:41;100324.78;;;-5.44;100.00
39793;BME280;26080;42.264;24.536;2024-01-11T02:45:07;100323.97;;;-5.43;100.00
39793;BME280;26080;42.264;24.536;2024-01-11T02:47:32;100327.34;;;-5.44;100.00
39793;BME280;26080;42.264;24.536;2024-01-11T02:49:58;100323.75;;;-5.49;100.00
39793;BME280;26080;42.264;24.536;2024-01-11T02:52:23;100297.56;;;-5.69;100.00
39793;BME280;26080;42.264;24.536;2024-01-11T02:54:49;100332.06;;;-5.55;100.00
39793;BME280;26080;42.264;24.536;2024-01-11T02:57:14;100331.72;;;-5.40;100.00
39793;BME280;26080;42.264;24.536;2024-01-11T02:59:40;100302.81;;;-5.64;100.00
39793;BME280;26080;42.264;24.536;2024-01-11T03:02:05;100327.84;;;-5.54;100.00
39793;BME280;26080;42.264;24.536;2024-01-11T03:04:31;100317.72;;;-5.51;100.00
39793;BME280;26080;42.264;24.536;2024-01-11T03:06:57;100327.03;;;-5.53;100.00
39793;BME280;26080;42.264;24.536;2024-01-11T03:09:22;100320.13;;;-5.56;100.00
39793;BME280;26080;42.264;24.536;2024-01-11T03:11:48;100319.72;;;-5.68;100.00
39793;BME280;26080;42.264;24.536;2024-01-11T03:14:13;100323.75;;;-5.75;100.00
39793;BME280;26080;42.264;24.536;2024-01-11T03:16:38;100316.88;;;-5.76;100.00
39793;BME280;26080;42.264;24.536;2024-01-11T03:19:05;100316.78;;;-5.79;100.00
39793;BME280;26080;42.264;24.536;2024-01-11T03:21:31;100323.75;;;-5.75;100.00
39793;BME280;26080;42.264;24.536;2024-01-11T03:23:56;100312.38;;;-5.84;100.00
39793;BME280;26080;42.264;24.536;2024-01-11T03:26:21;100320.94;;;-5.82;100.00
39793;BME280;26080;42.264;24.536;2024-01-11T03:28:47;100314.19;;;-5.80;100.00
39793;BME280;26080;42.264;24.536;2024-01-11T03:31:12;100309.84;;;-5.83;100.00
39793;BME280;26080;42.264;24.536;2024-01-11T03:33:38;100309.75;;;-5.86;100.00
39793;BME280;26080;42.264;24.536;2024-01-11T03:36:11;100297.81;;;-5.87;100.00
39793;BME280;26080;42.264;24.536;2024-01-11T03:38:37;100295.38;;;-5.84;100.00
39793;BME280;26080;42.264;24.536;2024-01-11T03:41:07;100291.19;;;-5.82;100.00
39793;BME280;26080;42.264;24.536;2024-01-11T03:43:33;100294.47;;;-5.86;100.00
39793;BME280;26080;42.264;24.536;2024-01-11T03:45:59;100293.41;;;-5.92;100.00
39793;BME280;26080;42.264;24.536;2024-01-11T03:48:24;100290.78;;;-5.94;100.00
39793;BME280;26080;42.264;24.536;2024-01-11T03:50:50;100283.97;;;-5.95;100.00
39793;BME280;26080;42.264;24.536;2024-01-11T03:53:15;100282.38;;;-5.91;100.00
39793;BME280;26080;42.264;24.536;2024-01-11T03:55:40;100278.34;;;-5.85;100.00
39793;BME280;26080;42.264;24.536;2024-01-11T03:58:06;100278.44;;;-5.82;100.00
39793;BME280;26080;42.264;24.536;2024-01-11T04:00:31;100281.16;;;-5.76;100.00
39793;BME280;26080;42.264;24.536;2024-01-11T04:02:58;100277.94;;;-5.72;100.00
39793;BME280;26080;42.264;24.536;2024-01-11T04:05:24;100277.25;;;-5.66;100.00
39793;BME280;26080;42.264;24.536;2024-01-11T04:07:49;100273.91;;;-5.63;100.00
39793;BME280;26080;42.264;24.536;2024-01-11T04:10:17;100274.75;;;-5.64;100.00
39793;BME280;26080;42.264;24.536;2024-01-11T04:12:42;100259.75;;;-5.81;100.00
39793;BME280;26080;42.264;24.536;2024-01-11T04:15:08;100273.22;;;-5.85;100.00
39793;BME280;26080;42.264;24.536;2024-01-11T04:17:33;100275.78;;;-5.85;100.00
39793;BME280;26080;42.264;24.536;2024-01-11T04:19:59;100275.47;;;-5.69;100.00
39793;BME280;26080;42.264;24.536;2024-01-11T04:22:24;100275.97;;;-5.79;100.00
39793;BME280;26080;42.264;24.536;2024-01-11T04:24:50;100278.03;;;-5.94;100.00
39793;BME280;26080;42.264;24.536;2024-01-11T04:27:15;100273.50;;;-6.03;100.00
39793;BME280;26080;42.264;24.536;2024-01-11T04:29:41;100279.31;;;-6.07;100.00
39793;BME280;26080;42.264;24.536;2024-01-11T04:32:06;100275.13;;;-6.05;100.00
39793;BME280;26080;42.264;24.536;2024-01-11T04:34:32;100268.47;;;-6.01;100.00
39793;BME280;26080;42.264;24.536;2024-01-11T04:36:57;100269.47;;;-5.96;100.00
39793;BME280;26080;42.264;24.536;2024-01-11T04:39:22;100266.88;;;-5.98;100.00
39793;BME280;26080;42.264;24.536;2024-01-11T04:41:48;100266.00;;;-5.98;100.00
39793;BME280;26080;42.264;24.536;2024-01-11T04:44:13;100265.09;;;-6.00;100.00
39793;BME280;26080;42.264;24.536;2024-01-11T04:46:39;100256.41;;;-6.05;100.00
39793;BME280;26080;42.264;24.536;2024-01-11T04:49:04;100263.34;;;-6.01;100.00
39793;BME280;26080;42.264;24.536;2024-01-11T04:51:30;100266.59;;;-6.05;100.00
39793;BME280;26080;42.264;24.536;2024-01-11T04:53:56;100267.38;;;-6.08;100.00
39793;BME280;26080;42.264;24.536;2024-01-11T04:56:21;100256.41;;;-6.05;100.00
39793;BME280;26080;42.264;24.536;2024-01-11T04:58:47;100202.72;;;-6.34;100.00
39793;BME280;26080;42.264;24.536;2024-01-11T05:01:17;100260.00;;;-6.00;100.00
39793;BME280;26080;42.264;24.536;2024-01-11T05:03:43;100265.09;;;-6.00;100.00
39793;BME280;26080;42.264;24.536;2024-01-11T05:06:18;100266.66;;;-6.04;100.00
39793;BME280;26080;42.264;24.536;2024-01-11T05:08:46;100270.72;;;-6.09;100.00
39793;BME280;26080;42.264;24.536;2024-01-11T05:11:19;100274.78;;;-6.15;100.00
39793;BME280;26080;42.264;24.536;2024-01-11T05:13:49;100265.44;;;-6.15;100.00
39793;BME280;26080;42.264;24.536;2024-01-11T05:16:23;100256.41;;;-6.05;100.00
39793;BME280;26080;42.264;24.536;2024-01-11T05:18:50;100261.63;;;-6.02;100.00
39793;BME280;26080;42.264;24.536;2024-01-11T05:21:16;100251.44;;;-6.02;100.00
39793;BME280;26080;42.264;24.536;2024-01-11T05:23:41;100254.13;;;-5.98;100.00
39793;BME280;26080;42.264;24.536;2024-01-11T05:26:08;100248.69;;;-6.07;100.00
39793;BME280;26080;42.264;24.536;2024-01-11T05:28:33;100244.31;;;-6.11;100.00
39793;BME280;26080;42.264;24.536;2024-01-11T05:30:58;100241.53;;;-6.17;100.00
39793;BME280;26080;42.264;24.536;2024-01-11T05:33:24;100247.63;;;-6.13;100.00
39793;BME280;26080;42.264;24.536;2024-01-11T05:35:49;100245.84;;;-6.16;100.00
39793;BME280;26080;42.264;24.536;2024-01-11T05:38:15;100237.22;;;-6.19;100.00
39793;BME280;26080;42.264;24.536;2024-01-11T05:40:41;100227.72;;;-6.23;100.00
39793;BME280;26080;42.264;24.536;2024-01-11T05:43:06;100236.34;;;-6.20;100.00
39793;BME280;26080;42.264;24.536;2024-01-11T05:45:32;100240.91;;;-6.11;100.00
39793;BME280;26080;42.264;24.536;2024-01-11T05:47:59;100237.63;;;-6.07;100.00
39793;BME280;26080;42.264;24.536;2024-01-11T05:50:24;100196.06;;;-6.30;100.00
39793;BME280;26080;42.264;24.536;2024-01-11T05:52:51;100227.59;;;-6.03;100.00
39793;BME280;26080;42.264;24.536;2024-01-11T05:55:19;100235.25;;;-6.03;100.00
39793;BME280;26080;42.264;24.536;2024-01-11T05:57:44;100225.09;;;-6.01;100.00
39793;BME280;26080;42.264;24.536;2024-01-11T06:00:11;100163.25;;;-6.45;100.00
39793;BME280;26080;42.264;24.536;2024-01-11T06:02:37;100202.94;;;-6.28;100.00
39793;BME280;26080;42.264;24.536;2024-01-11T06:05:02;100225.50;;;-6.14;100.00
39793;BME280;26080;42.264;24.536;2024-01-11T06:07:28;100223.06;;;-6.11;100.00
39793;BME280;26080;42.264;24.536;2024-01-11T06:09:54;100224.94;;;-6.06;100.00
39793;BME280;26080;42.264;24.536;2024-01-11T06:12:19;100220.19;;;-5.95;100.00
39793;BME280;26080;42.264;24.536;2024-01-11T06:14:45;100187.34;;;-6.11;100.00
39793;BME280;26080;42.264;24.536;2024-01-11T06:17:10;100229.56;;;-5.94;100.00
39793;BME280;26080;42.264;24.536;2024-01-11T06:19:37;100223.56;;;-5.96;100.00
39793;BME280;26080;42.264;24.536;2024-01-11T06:22:04;100215.81;;;-5.99;100.00
39793;BME280;26080;42.264;24.536;2024-01-11T06:24:30;100221.00;;;-5.96;100.00
39793;BME280;26080;42.264;24.536;2024-01-11T06:26:55;100222.75;;;-5.95;100.00
39793;BME280;26080;42.264;24.536;2024-01-11T06:29:21;100166.34;;;-6.30;100.00
39793;BME280;26080;42.264;24.536;2024-01-11T06:31:46;100221.97;;;-5.92;100.00
39793;BME280;26080;42.264;24.536;2024-01-11T06:34:11;100226.41;;;-5.87;100.00
39793;BME280;26080;42.264;24.536;2024-01-11T06:36:37;100222.31;;;-5.82;100.00
39793;BME280;26080;42.264;24.536;2024-01-11T06:39:02;100218.31;;;-5.74;100.00
39793;BME280;26080;42.264;24.536;2024-01-11T06:41:29;100221.47;;;-5.55;100.00
39793;BME280;26080;42.264;24.536;2024-01-11T06:43:54;100213.38;;;-5.42;100.00
39793;BME280;26080;42.264;24.536;2024-01-11T06:46:20;100214.97;;;-5.46;100.00
39793;BME280;26080;42.264;24.536;2024-01-11T06:48:47;100211.28;;;-5.54;100.00
39793;BME280;26080;42.264;24.536;2024-01-11T06:51:16;100219.25;;;-5.45;100.00
39793;BME280;26080;42.264;24.536;2024-01-11T06:53:45;100215.00;;;-5.44;100.00
39793;BME280;26080;42.264;24.536;2024-01-11T06:56:18;100212.72;;;-5.35;100.00
39793;BME280;26080;42.264;24.536;2024-01-11T06:58:44;100211.00;;;-5.36;100.00
39793;BME280;26080;42.264;24.536;2024-01-11T07:01:10;100207.03;;;-5.26;100.00
39793;BME280;26080;42.264;24.536;2024-01-11T07:03:36;100213.00;;;-5.26;100.00
39793;BME280;26080;42.264;24.536;2024-01-11T07:06:01;100209.59;;;-5.26;100.00
39793;BME280;26080;42.264;24.536;2024-01-11T07:08:30;100213.22;;;-5.20;100.00
39793;BME280;26080;42.264;24.536;2024-01-11T07:10:58;100204.84;;;-5.14;100.00
39793;BME280;26080;42.264;24.536;2024-01-11T07:13:23;100201.72;;;-5.05;100.00
39793;BME280;26080;42.264;24.536;2024-01-11T07:15:49;100201.81;;;-5.02;100.00
39793;BME280;26080;42.264;24.536;2024-01-11T07:18:17;100207.19;;;-4.93;100.00
39793;BME280;26080;42.264;24.536;2024-01-11T07:20:45;100204.84;;;-4.86;100.00
39793;BME280;26080;42.264;24.536;2024-01-11T07:23:11;100209.44;;;-4.74;100.00
39793;BME280;26080;42.264;24.536;2024-01-11T07:25:36;100195.84;;;-4.73;100.00
39793;BME280;26080;42.264;24.536;2024-01-11T07:28:02;100194.25;;;-4.68;100.00
39793;BME280;26080;42.264;24.536;2024-01-11T07:30:27;100197.97;;;-4.57;100.00
39793;BME280;26080;42.264;24.536;2024-01-11T07:32:53;100184.56;;;-4.50;100.00
39793;BME280;26080;42.264;24.536;2024-01-11T07:35:19;100189.22;;;-4.35;100.00
39793;BME280;26080;42.264;24.536;2024-01-11T07:37:45;100189.00;;;-4.11;100.00
39793;BME280;26080;42.264;24.536;2024-01-11T07:40:11;100185.59;;;-4.10;100.00
39793;BME280;26080;42.264;24.536;2024-01-11T07:42:40;100184.84;;;-4.06;100.00
39793;BME280;26080;42.264;24.536;2024-01-11T07:45:06;100182.44;;;-4.00;100.00
39793;BME280;26080;42.264;24.536;2024-01-11T07:47:33;100182.91;;;-3.81;100.00
39793;BME280;26080;42.264;24.536;2024-01-11T07:49:58;100144.88;;;-4.01;100.00
39793;BME280;26080;42.264;24.536;2024-01-11T07:52:24;100124.31;;;-4.05;100.00
39793;BME280;26080;42.264;24.536;2024-01-11T07:54:49;100176.41;;;-3.67;100.00
39793;BME280;26080;42.264;24.536;2024-01-11T07:57:15;100179.94;;;-3.62;100.00
39793;BME280;26080;42.264;24.536;2024-01-11T07:59:40;100174.06;;;-3.58;100.00
39793;BME280;26080;42.264;24.536;2024-01-11T08:02:06;100172.44;;;-3.56;100.00
39793;BME280;26080;42.264;24.536;2024-01-11T08:04:32;100167.69;;;-3.39;100.00
39793;BME280;26080;42.264;24.536;2024-01-11T08:06:57;100168.59;;;-3.36;100.00
39793;BME280;26080;42.264;24.536;2024-01-11T08:09:25;100157.44;;;-3.39;100.00
39793;BME280;26080;42.264;24.536;2024-01-11T08:11:51;100170.59;;;-3.22;100.00
39793;BME280;26080;42.264;24.536;2024-01-11T08:14:22;100147.38;;;-3.30;100.00
39793;BME280;26080;42.264;24.536;2024-01-11T08:16:47;100158.84;;;-3.14;100.00
39793;BME280;26080;42.264;24.536;2024-01-11T08:19:13;100155.56;;;-3.07;100.00
39793;BME280;26080;42.264;24.536;2024-01-11T08:21:40;100154.28;;;-2.87;100.00
39793;BME280;26080;42.264;24.536;2024-01-11T08:24:06;100147.59;;;-2.79;100.00
39793;BME280;26080;42.264;24.536;2024-01-11T08:26:32;100152.88;;;-2.71;100.00
39793;BME280;26080;42.264;24.536;2024-01-11T08:28:57;100144.22;;;-2.76;100.00
39793;BME280;26080;42.264;24.536;2024-01-11T08:31:23;100149.44;;;-2.73;100.00
39793;BME280;26080;42.264;24.536;2024-01-11T08:33:48;100141.03;;;-2.64;100.00
39793;BME280;26080;42.264;24.536;2024-01-11T08:36:15;100143.91;;;-2.48;100.00
39793;BME280;26080;42.264;24.536;2024-01-11T08:38:40;100143.22;;;-2.39;100.00
39793;BME280;26080;42.264;24.536;2024-01-11T08:41:06;100128.66;;;-2.40;100.00
39793;BME280;26080;42.264;24.536;2024-01-11T08:43:32;100126.28;;;-2.31;100.00
39793;BME280;26080;42.264;24.536;2024-01-11T08:45:57;100122.25;;;-2.17;100.00
39793;BME280;26080;42.264;24.536;2024-01-11T08:48:26;100125.66;;;-2.16;100.00
39793;BME280;26080;42.264;24.536;2024-01-11T08:50:52;100123.28;;;-2.05;100.00
39793;BME280;26080;42.264;24.536;2024-01-11T08:53:17;100110.53;;;-2.01;100.00
39793;BME280;26080;42.264;24.536;2024-01-11T08:55:43;100122.75;;;-1.85;100.00
39793;BME280;26080;42.264;24.536;2024-01-11T08:58:09;100080.66;;;-1.94;100.00
39793;BME280;26080;42.264;24.536;2024-01-11T09:00:36;100103.19;;;-1.78;100.00
39793;BME280;26080;42.264;24.536;2024-01-11T09:03:02;100103.22;;;-1.75;100.00
39793;BME280;26080;42.264;24.536;2024-01-11T09:05:28;100099.13;;;-1.62;100.00
39793;BME280;26080;42.264;24.536;2024-01-11T09:07:53;100090.66;;;-1.55;100.00
39793;BME280;26080;42.264;24.536;2024-01-11T09:10:19;100069.22;;;-1.59;100.00
39793;BME280;26080;42.264;24.536;2024-01-11T09:12:44;100071.22;;;-1.36;100.00
39793;BME280;26080;42.264;24.536;2024-01-11T09:15:09;100074.66;;;-1.36;100.00
39793;BME280;26080;42.264;24.536;2024-01-11T09:17:35;100070.44;;;-1.29;100.00
39793;BME280;26080;42.264;24.536;2024-01-11T09:20:00;100071.44;;;-1.20;100.00
39793;BME280;26080;42.264;24.536;2024-01-11T09:22:26;100068.00;;;-1.20;100.00
39793;BME280;26080;42.264;24.536;2024-01-11T09:24:51;100067.19;;;-1.14;100.00
39793;BME280;26080;42.264;24.536;2024-01-11T09:27:17;100058.72;;;-1.09;100.00
39793;BME280;26080;42.264;24.536;2024-01-11T09:29:43;100026.00;;;-1.22;100.00
39793;BME280;26080;42.264;24.536;2024-01-11T09:32:09;100031.31;;;-1.07;100.00
39793;BME280;26080;42.264;24.536;2024-01-11T09:34:35;100043.50;;;-0.89;100.00
39793;BME280;26080;42.264;24.536;2024-01-11T09:37:00;100038.38;;;-0.86;100.00
39793;BME280;26080;42.264;24.536;2024-01-11T09:39:26;100034.19;;;-0.78;100.00
39793;BME280;26080;42.264;24.536;2024-01-11T09:41:58;100036.75;;;-0.79;100.00
39793;BME280;26080;42.264;24.536;2024-01-11T09:44:25;100021.44;;;-0.67;100.00
39793;BME280;26080;42.264;24.536;2024-01-11T09:46:51;100020.63;;;-0.58;100.00
39793;BME280;26080;42.264;24.536;2024-01-11T09:49:18;100005.28;;;-0.51;100.00
39793;BME280;26080;42.264;24.536;2024-01-11T09:51:46;99995.88;;;-0.46;100.00
39793;BME280;26080;42.264;24.536;2024-01-11T09:54:12;99995.13;;;-0.33;100.00
39793;BME280;26080;42.264;24.536;2024-01-11T09:56:40;99991.66;;;-0.38;100.00
39793;BME280;26080;42.264;24.536;2024-01-11T09:59:06;99981.47;;;-0.25;100.00
39793;BME280;26080;42.264;24.536;2024-01-11T10:01:35;99983.19;;;-0.24;100.00
39793;BME280;26080;42.264;24.536;2024-01-11T10:04:01;99976.34;;;-0.19;100.00
39793;BME280;26080;42.264;24.536;2024-01-11T10:06:32;99966.97;;;-0.13;100.00
39793;BME280;26080;42.264;24.536;2024-01-11T10:08:58;99971.34;;;0.02;100.00
39793;BME280;26080;42.264;24.536;2024-01-11T10:11:24;99966.22;;;0.11;100.00
39793;BME280;26080;42.264;24.536;2024-01-11T10:13:56;99968.84;;;0.14;100.00
39793;BME280;26080;42.264;24.536;2024-01-11T10:16:21;99950.81;;;0.20;100.00
39793;BME280;26080;42.264;24.536;2024-01-11T10:18:47;99950.81;;;0.17;100.00
39793;BME280;26080;42.264;24.536;2024-01-11T10:21:12;99949.16;;;0.28;100.00
39793;BME280;26080;42.264;24.536;2024-01-11T10:23:37;99939.78;;;0.44;100.00
39793;BME280;26080;42.264;24.536;2024-01-11T10:26:07;99928.63;;;0.53;100.00
39793;BME280;26080;42.264;24.536;2024-01-11T10:28:35;99925.22;;;0.57;100.00
39793;BME280;26080;42.264;24.536;2024-01-11T10:31:05;99897.69;;;0.48;100.00
39793;BME280;26080;42.264;24.536;2024-01-11T10:33:34;99892.56;;;0.59;100.00
39793;BME280;26080;42.264;24.536;2024-01-11T10:36:01;99913.25;;;0.83;100.00
39793;BME280;26080;42.264;24.536;2024-01-11T10:38:29;99910.66;;;0.94;100.00
39793;BME280;26080;42.264;24.536;2024-01-11T10:40:55;99880.56;;;0.81;100.00
39793;BME280;26080;42.264;24.536;2024-01-11T10:43:24;99901.22;;;1.04;100.00
39793;BME280;26080;42.264;24.536;2024-01-11T10:45:51;99896.06;;;1.08;100.00
39793;BME280;26080;42.264;24.536;2024-01-11T10:48:24;99893.47;;;1.04;100.00
39793;BME280;26080;42.264;24.536;2024-01-11T10:50:54;99880.59;;;1.14;100.00
39793;BME280;26080;42.264;24.536;2024-01-11T10:53:44;99892.63;;;1.31;100.00
39793;BME280;26080;42.264;24.536;2024-01-11T10:56:11;99848.75;;;1.09;100.00
39793;BME280;26080;42.264;24.536;2024-01-11T10:58:41;99881.44;;;1.32;100.00
39793;BME280;26080;42.264;24.536;2024-01-11T11:01:08;99872.84;;;1.37;100.00
39793;BME280;26080;42.264;24.536;2024-01-11T11:03:34;99868.50;;;1.45;100.00
39793;BME280;26080;42.264;24.536;2024-01-11T11:06:01;99868.50;;;1.48;100.00
39793;BME280;26080;42.264;24.536;2024-01-11T11:08:27;99864.19;;;1.51;100.00
39793;BME280;26080;42.264;24.536;2024-01-11T11:11:01;99857.34;;;1.51;100.00
39793;BME280;26080;42.264;24.536;2024-01-11T11:13:29;99828.94;;;1.43;100.00
39793;BME280;26080;42.264;24.536;2024-01-11T11:15:54;99845.25;;;1.68;100.00
39793;BME280;26080;42.264;24.536;2024-01-11T11:18:23;99846.09;;;1.69;100.00
39793;BME280;26080;42.264;24.536;2024-01-11T11:20:49;99841.78;;;1.71;100.00
39793;BME280;26080;42.264;24.536;2024-01-11T11:23:18;99834.84;;;1.85;100.00
39793;BME280;26080;42.264;24.536;2024-01-11T11:25:48;99828.81;;;1.89;100.00
39793;BME280;26080;42.264;24.536;2024-01-11T11:28:16;99808.19;;;1.83;100.00
39793;BME280;26080;42.264;24.536;2024-01-11T11:30:43;99782.44;;;1.65;100.00
39793;BME280;26080;42.264;24.536;2024-01-11T11:33:27;99790.13;;;1.71;100.00
39793;BME280;26080;42.264;24.536;2024-01-11T11:35:57;99805.53;;;1.95;100.00
39793;BME280;26080;42.264;24.536;2024-01-11T11:38:25;99801.19;;;2.00;100.00
39793;BME280;26080;42.264;24.536;2024-01-11T11:40:58;99788.25;;;2.05;100.00
39793;BME280;26080;42.264;24.536;2024-01-11T11:43:27;99787.34;;;2.15;100.00
39793;BME280;26080;42.264;24.536;2024-01-11T11:45:54;99759.88;;;1.97;100.00
39793;BME280;26080;42.264;24.536;2024-01-11T11:51:17;99744.34;;;2.05;100.00
39793;BME280;26080;42.264;24.536;2024-01-11T11:53:45;99776.94;;;2.29;100.00
39793;BME280;26080;42.264;24.536;2024-01-11T11:56:11;99762.25;;;2.35;100.00
39793;BME280;26080;42.264;24.536;2024-01-11T11:58:38;99767.41;;;2.35;100.00
39793;BME280;26080;42.264;24.536;2024-01-11T12:01:04;99763.06;;;2.42;100.00
39793;BME280;26080;42.264;24.536;2024-01-11T12:03:46;99745.78;;;2.50;100.00
39793;BME280;26080;42.264;24.536;2024-01-11T12:06:15;99706.31;;;2.25;100.00
39793;BME280;26080;42.264;24.536;2024-01-11T12:08:42;99736.28;;;2.51;100.00
39793;BME280;26080;42.264;24.536;2024-01-11T12:11:08;99727.63;;;2.55;100.00
39793;BME280;26080;42.264;24.536;2024-01-11T12:13:34;99727.63;;;2.55;100.00
39793;BME280;26080;42.264;24.536;2024-01-11T12:15:59;99723.25;;;2.60;100.00
39793;BME280;26080;42.264;24.536;2024-01-11T12:18:25;99716.34;;;2.65;100.00
39793;BME280;26080;42.264;24.536;2024-01-11T12:20:51;99720.59;;;2.71;100.00
39793;BME280;26080;42.264;24.536;2024-01-11T12:23:18;99713.69;;;2.70;100.00
39793;BME280;26080;42.264;24.536;2024-01-11T12:25:43;99711.94;;;2.73;100.00
39793;BME280;26080;42.264;24.536;2024-01-11T12:28:09;99704.19;;;2.76;100.00
39793;BME280;26080;42.264;24.536;2024-01-11T12:30:35;99678.38;;;2.68;100.00
39793;BME280;26080;42.264;24.536;2024-01-11T12:33:01;99697.19;;;2.83;100.00